createdAt,value
2019-03-04T00:00:41.362Z,99.90
2019-03-04T00:02:43.031Z,98.50
2019-03-04T00:04:45.025Z,98.10
2019-03-04T00:06:46.685Z,97.90
2019-03-04T00:08:48.361Z,97.90
2019-03-04T00:10:50.028Z,97.50
2019-03-04T00:12:51.690Z,98.80
2019-03-04T00:14:53.367Z,97.80
2019-03-04T00:16:55.033Z,98.40
2019-03-04T00:18:56.717Z,97.80
2019-03-04T00:20:58.385Z,97.10
2019-03-04T00:23:00.054Z,98.00
2019-03-04T00:25:01.734Z,96.90
2019-03-04T00:27:03.401Z,97.60
2019-03-04T00:29:05.096Z,97.70
2019-03-04T00:31:06.850Z,98.50
2019-03-04T00:33:08.521Z,97.80
2019-03-04T00:35:10.201Z,97.80
2019-03-04T00:37:11.875Z,97.50
2019-03-04T00:39:13.553Z,97.70
2019-03-04T00:41:15.226Z,95.70
2019-03-04T00:43:16.902Z,96.50
2019-03-04T00:45:18.578Z,97.70
2019-03-04T00:47:20.237Z,96.70
2019-03-04T00:49:21.918Z,96.50
2019-03-04T00:51:23.637Z,96.30
2019-03-04T00:53:25.353Z,95.70
2019-03-04T00:55:27.030Z,96.00
2019-03-04T00:57:28.689Z,94.70
2019-03-04T00:59:31.417Z,96.00
2019-03-04T01:01:33.230Z,96.20
2019-03-04T01:03:34.910Z,96.10
2019-03-04T01:05:36.581Z,96.30
2019-03-04T01:07:38.261Z,94.80
2019-03-04T01:09:39.942Z,97.00
2019-03-04T01:11:41.609Z,93.90
2019-03-04T01:13:43.279Z,96.10
2019-03-04T01:15:44.953Z,96.30
2019-03-04T01:17:46.617Z,95.20
2019-03-04T01:19:48.298Z,94.30
2019-03-04T01:21:49.965Z,95.10
2019-03-04T01:23:51.663Z,93.80
2019-03-04T01:25:53.409Z,93.70
2019-03-04T01:27:55.078Z,93.40
2019-03-04T01:29:57.065Z,93.00
2019-03-04T01:31:58.733Z,92.10
2019-03-04T01:34:00.397Z,93.70
2019-03-04T01:36:02.086Z,91.80
2019-03-04T01:38:03.759Z,90.90
2019-03-04T01:40:07.714Z,91.20
2019-03-04T01:42:09.385Z,86.40
2019-03-04T01:44:11.056Z,91.40
2019-03-04T01:46:12.749Z,90.30
2019-03-04T01:48:14.414Z,92.60
2019-03-04T01:50:16.421Z,90.30
2019-03-04T01:52:18.082Z,91.80
2019-03-04T01:54:19.746Z,87.60
2019-03-04T01:56:21.425Z,91.60
2019-03-04T01:58:23.086Z,87.60
2019-03-04T02:00:24.761Z,89.60
2019-03-04T02:02:26.770Z,91.40
2019-03-04T02:04:28.439Z,89.50
2019-03-04T02:06:30.119Z,86.50
2019-03-04T02:08:31.777Z,88.90
2019-03-04T02:10:33.453Z,85.40
2019-03-04T02:12:35.129Z,86.30
2019-03-04T02:14:36.798Z,88.00
2019-03-04T02:16:38.478Z,90.30
2019-03-04T02:18:40.397Z,90.70
2019-03-04T02:20:42.076Z,89.40
2019-03-04T02:22:43.926Z,86.70
2019-03-04T02:24:45.603Z,87.30
2019-03-04T02:26:47.286Z,87.70
2019-03-04T02:28:48.962Z,85.70
2019-03-04T02:30:50.926Z,88.40
2019-03-04T02:32:52.594Z,87.00
2019-03-04T02:34:54.267Z,87.30
2019-03-04T02:36:55.949Z,86.30
2019-03-04T02:38:57.618Z,83.00
2019-03-04T02:40:59.298Z,82.50
2019-03-04T02:43:00.961Z,82.10
2019-03-04T02:45:02.921Z,87.40
2019-03-04T02:47:04.598Z,87.30
2019-03-04T02:49:06.261Z,85.60
2019-03-04T02:51:08.443Z,87.40
2019-03-04T02:53:10.103Z,82.60
2019-03-04T02:55:12.426Z,88.00
2019-03-04T02:57:14.095Z,82.80
2019-03-04T02:59:15.763Z,78.40
2019-03-04T03:01:17.546Z,82.90
2019-03-04T03:03:19.467Z,78.10
2019-03-04T03:05:21.133Z,82.00
2019-03-04T03:07:22.805Z,83.60
2019-03-04T03:09:24.507Z,79.20
2019-03-04T03:11:26.255Z,82.60
2019-03-04T03:13:28.256Z,79.90
2019-03-04T03:15:29.960Z,76.40
2019-03-04T03:17:31.632Z,83.30
2019-03-04T03:19:33.602Z,75.40
2019-03-04T03:21:35.281Z,78.40
2019-03-04T03:23:36.945Z,78.30
2019-03-04T03:25:38.627Z,80.40
2019-03-04T03:27:40.302Z,81.30
2019-03-04T03:29:41.973Z,82.30
2019-03-04T03:31:43.659Z,81.90
2019-03-04T03:33:45.427Z,84.30
2019-03-04T03:35:47.474Z,78.40
2019-03-04T03:37:49.246Z,81.80
2019-03-04T03:39:50.985Z,84.80
2019-03-04T03:41:52.931Z,80.90
2019-03-04T03:43:54.598Z,82.90
2019-03-04T03:45:56.623Z,86.10
2019-03-04T03:47:58.296Z,86.10
2019-03-04T03:49:59.973Z,83.70
2019-03-04T03:52:01.669Z,84.10
2019-03-04T03:54:03.421Z,85.50
2019-03-04T03:56:05.097Z,84.70
2019-03-04T03:58:07.058Z,83.80
2019-03-04T04:00:12.124Z,87.40
2019-03-04T04:02:13.812Z,87.10
2019-03-04T04:04:15.482Z,84.50
2019-03-04T04:06:17.165Z,87.70
2019-03-04T04:08:18.831Z,87.20
2019-03-04T04:10:20.517Z,84.50
2019-03-04T04:12:22.195Z,84.60
2019-03-04T04:14:23.859Z,82.30
2019-03-04T04:16:25.535Z,84.50
2019-03-04T04:18:27.538Z,83.30
2019-03-04T04:20:29.217Z,84.50
2019-03-04T04:22:30.899Z,84.50
2019-03-04T04:24:32.563Z,84.50
2019-03-04T04:26:34.489Z,84.70
2019-03-04T04:28:36.562Z,84.50
2019-03-04T04:30:39.217Z,82.70
2019-03-04T04:32:40.906Z,82.60
2019-03-04T04:34:42.578Z,83.80
2019-03-04T04:36:44.270Z,78.80
2019-03-04T04:38:45.937Z,78.70
2019-03-04T04:40:47.610Z,80.50
2019-03-04T04:42:49.290Z,77.30
2019-03-04T04:44:50.958Z,80.40
2019-03-04T04:46:54.130Z,82.20
2019-03-04T04:48:56.109Z,82.50
2019-03-04T04:50:57.779Z,78.10
2019-03-04T04:52:59.462Z,80.70
2019-03-04T04:55:01.135Z,79.20
2019-03-04T04:57:02.910Z,80.30
2019-03-04T04:59:04.572Z,78.40
2019-03-04T05:01:06.238Z,81.80
2019-03-04T05:03:08.227Z,81.80
2019-03-04T05:05:09.899Z,79.10
2019-03-04T05:07:11.577Z,85.40
2019-03-04T05:09:13.249Z,81.80
2019-03-04T05:11:14.921Z,84.80
2019-03-04T05:13:16.614Z,85.00
2019-03-04T05:15:18.295Z,85.90
2019-03-04T05:17:19.978Z,82.80
2019-03-04T05:19:21.941Z,84.10
2019-03-04T05:21:23.610Z,85.20
2019-03-04T05:23:25.290Z,88.60
2019-03-04T05:25:26.959Z,88.20
2019-03-04T05:27:28.647Z,85.30
2019-03-04T05:29:30.614Z,83.40
2019-03-04T05:31:32.568Z,87.90
2019-03-04T05:33:34.245Z,84.00
2019-03-04T05:35:35.929Z,82.80
2019-03-04T05:37:37.607Z,85.20
2019-03-04T05:39:39.274Z,81.80
2019-03-04T05:41:40.941Z,76.80
2019-03-04T05:43:42.606Z,76.00
2019-03-04T05:45:44.269Z,77.00
2019-03-04T05:47:45.953Z,72.20
2019-03-04T05:49:47.613Z,77.50
2019-03-04T05:51:49.430Z,74.90
2019-03-04T05:53:51.106Z,78.10
2019-03-04T05:55:52.775Z,78.80
2019-03-04T05:57:54.460Z,79.50
2019-03-04T05:59:56.125Z,78.60
2019-03-04T06:02:06.594Z,80.10
2019-03-04T06:04:09.994Z,83.80
2019-03-04T06:06:11.666Z,85.30
2019-03-04T06:08:13.345Z,85.90
2019-03-04T06:10:15.009Z,84.10
2019-03-04T06:12:16.682Z,86.40
2019-03-04T06:14:18.356Z,85.60
2019-03-04T06:16:20.026Z,85.30
2019-03-04T06:18:22.054Z,83.50
2019-03-04T06:20:23.995Z,84.40
2019-03-04T06:22:25.662Z,84.20
2019-03-04T06:24:27.338Z,82.20
2019-03-04T06:26:29.006Z,80.10
2019-03-04T06:28:31.006Z,79.70
2019-03-04T06:30:32.669Z,78.40
2019-03-04T06:32:34.630Z,78.90
2019-03-04T06:34:36.398Z,76.40
2019-03-04T06:36:38.073Z,71.10
2019-03-04T06:38:39.749Z,75.20
2019-03-04T06:40:41.418Z,61.60
2019-03-04T06:42:43.090Z,55.60
2019-03-04T06:44:44.765Z,49.80
2019-03-04T06:46:46.681Z,52.10
2019-03-04T06:48:48.368Z,47.40
2019-03-04T06:50:53.751Z,50.50
2019-03-04T06:52:56.689Z,44.50
2019-03-04T06:55:14.738Z,38.30
2019-03-04T06:57:28.515Z,40.20
2019-03-04T06:59:38.417Z,34.90
2019-03-04T07:01:44.287Z,35.30
2019-03-04T07:04:00.876Z,44.40
2019-03-04T07:06:02.563Z,33.30
2019-03-04T07:08:04.309Z,32.40
2019-03-04T07:10:06.006Z,31.40
2019-03-04T07:12:07.910Z,29.80
2019-03-04T07:14:09.585Z,29.20
2019-03-04T07:16:11.256Z,26.80
2019-03-04T07:18:13.217Z,29.30
2019-03-04T07:20:14.902Z,36.50
2019-03-04T07:22:16.575Z,28.00
2019-03-04T07:24:18.250Z,27.10
2019-03-04T07:26:19.913Z,25.20
2019-03-04T07:28:21.587Z,32.00
2019-03-04T07:30:23.253Z,23.90
2019-03-04T07:32:24.912Z,22.00
2019-03-04T07:34:26.586Z,26.50
2019-03-04T07:36:28.258Z,25.60
2019-03-04T07:39:09.253Z,26.10
2019-03-04T07:41:10.914Z,30.00
2019-03-04T07:43:12.583Z,25.90
2019-03-04T07:45:14.308Z,16.50
2019-03-04T07:47:15.985Z,17.70
2019-03-04T07:49:17.670Z,17.40
2019-03-04T07:51:19.334Z,17.30
2019-03-04T07:53:20.998Z,18.50
2019-03-04T07:55:22.670Z,22.10
2019-03-04T07:57:24.555Z,33.50
2019-03-04T07:59:26.279Z,38.60
2019-03-04T08:01:27.996Z,49.10
2019-03-04T08:03:29.667Z,73.10
2019-03-04T08:05:31.346Z,97.20
2019-03-04T08:07:52.706Z,99.90
2019-03-04T08:10:28.265Z,99.90
2019-03-04T08:13:09.316Z,99.90
2019-03-04T08:15:10.990Z,99.90
2019-03-04T08:17:12.659Z,99.90
2019-03-04T08:19:14.334Z,99.90
2019-03-04T08:21:16.019Z,99.90
2019-03-04T08:23:17.688Z,99.90
2019-03-04T08:25:19.361Z,99.90
2019-03-04T08:27:21.021Z,99.90
2019-03-04T08:29:23.009Z,99.90
2019-03-04T08:31:24.684Z,99.90
2019-03-04T08:33:26.597Z,99.90
2019-03-04T08:35:28.265Z,99.90
2019-03-04T08:37:30.229Z,99.90
2019-03-04T08:39:31.895Z,99.90
2019-03-04T08:41:33.570Z,98.80
2019-03-04T08:43:35.237Z,95.00
2019-03-04T08:45:36.915Z,93.10
2019-03-04T08:47:38.630Z,90.40
2019-03-04T08:49:40.302Z,92.40
2019-03-04T08:51:41.979Z,94.30
2019-03-04T08:53:43.650Z,93.00
2019-03-04T08:55:45.737Z,94.60
2019-03-04T08:57:47.481Z,90.60
2019-03-04T08:59:49.149Z,91.40
2019-03-04T09:01:51.078Z,94.00
2019-03-04T09:03:52.746Z,94.00
2019-03-04T09:05:54.424Z,93.30
2019-03-04T09:07:56.087Z,91.00
2019-03-04T09:09:57.750Z,93.20
2019-03-04T09:11:59.426Z,89.70
2019-03-04T09:14:01.100Z,85.90
2019-03-04T09:16:02.784Z,92.50
2019-03-04T09:18:04.772Z,81.60
2019-03-04T09:20:07.093Z,92.00
2019-03-04T09:22:09.009Z,81.30
2019-03-04T09:24:10.669Z,87.90
2019-03-04T09:26:12.644Z,88.10
2019-03-04T09:28:14.316Z,81.00
2019-03-04T09:30:16.174Z,86.40
2019-03-04T09:32:17.841Z,79.50
2019-03-04T09:34:19.531Z,79.90
2019-03-04T09:36:21.222Z,83.50
2019-03-04T09:38:23.170Z,79.20
2019-03-04T09:40:25.970Z,75.30
2019-03-04T09:42:28.321Z,78.20
2019-03-04T09:44:29.985Z,73.60
2019-03-04T09:46:31.662Z,67.20
2019-03-04T09:48:33.339Z,55.50
2019-03-04T09:50:35.001Z,50.60
2019-03-04T09:52:36.680Z,62.20
2019-03-04T09:54:38.346Z,45.70
2019-03-04T09:56:40.026Z,54.50
2019-03-04T09:58:41.694Z,40.90
2019-03-04T10:01:34.674Z,58.60
2019-03-04T10:04:34.051Z,52.30
2019-03-04T10:06:58.629Z,46.50
2019-03-04T10:09:37.453Z,41.70
2019-03-04T10:11:51.059Z,29.00
2019-03-04T10:14:14.198Z,28.50
2019-03-04T10:16:46.669Z,27.70
2019-03-04T10:19:30.098Z,30.00
2019-03-04T10:22:05.301Z,33.20
2019-03-04T10:24:43.446Z,26.40
2019-03-04T10:27:42.401Z,37.90
2019-03-04T10:30:01.646Z,28.60
2019-03-04T10:32:44.829Z,30.70
2019-03-04T10:35:30.441Z,34.40
2019-03-04T10:38:07.318Z,30.80
2019-03-04T10:40:34.665Z,28.90
2019-03-04T10:42:49.971Z,35.30
2019-03-04T10:45:12.373Z,32.90
2019-03-04T10:47:14.044Z,28.20
2019-03-04T10:49:15.713Z,27.40
2019-03-04T10:51:18.748Z,26.60
2019-03-04T10:53:20.553Z,29.40
2019-03-04T10:55:22.558Z,37.20
2019-03-04T10:57:24.229Z,31.70
2019-03-04T10:59:25.888Z,36.40
2019-03-04T11:01:30.664Z,40.20
2019-03-04T11:03:31.138Z,48.10
2019-03-04T11:05:32.801Z,44.30
2019-03-04T11:07:34.572Z,28.50
2019-03-04T11:09:36.553Z,23.20
2019-03-04T11:11:38.827Z,16.50
2019-03-04T11:13:40.817Z,17.90
2019-03-04T11:15:42.485Z,18.10
2019-03-04T11:17:44.733Z,18.70
2019-03-04T11:19:46.406Z,22.40
2019-03-04T11:21:48.176Z,19.60
2019-03-04T11:23:49.852Z,26.10
2019-03-04T11:25:51.527Z,19.70
2019-03-04T11:27:53.490Z,22.40
2019-03-04T11:29:55.450Z,22.50
2019-03-04T11:31:57.518Z,23.10
2019-03-04T11:33:59.470Z,24.60
2019-03-04T11:36:01.153Z,48.50
2019-03-04T11:38:03.353Z,88.30
2019-03-04T11:40:13.129Z,97.60
2019-03-04T11:42:14.796Z,99.90
2019-03-04T11:44:16.465Z,99.90
2019-03-04T11:46:20.914Z,99.90
2019-03-04T11:48:22.598Z,99.90
2019-03-04T11:50:24.271Z,99.90
2019-03-04T11:52:25.947Z,99.90
2019-03-04T11:54:28.121Z,99.90
2019-03-04T11:56:29.790Z,99.90
2019-03-04T11:58:32.274Z,99.90
2019-03-04T12:00:40.024Z,99.90
2019-03-04T12:02:41.738Z,99.90
2019-03-04T12:04:43.416Z,99.90
2019-03-04T12:06:45.085Z,99.90
2019-03-04T12:08:46.766Z,99.30
2019-03-04T12:10:48.749Z,95.40
2019-03-04T12:12:50.438Z,94.20
2019-03-04T12:14:52.119Z,95.80
2019-03-04T12:16:53.809Z,94.40
2019-03-04T12:18:55.489Z,92.00
2019-03-04T12:20:57.156Z,90.90
2019-03-04T12:22:58.854Z,95.90
2019-03-04T12:25:00.517Z,90.90
2019-03-04T12:27:02.186Z,95.80
2019-03-04T12:29:03.872Z,94.00
2019-03-04T12:31:05.773Z,93.90
2019-03-04T12:33:07.749Z,98.50
2019-03-04T12:35:10.933Z,99.40
2019-03-04T12:37:12.615Z,90.40
2019-03-04T12:39:14.293Z,97.10
2019-03-04T12:41:15.965Z,99.90
2019-03-04T12:43:17.641Z,99.90
2019-03-04T12:45:19.418Z,99.90
2019-03-04T12:47:21.094Z,99.90
2019-03-04T12:49:22.876Z,99.90
2019-03-04T12:51:24.543Z,99.90
2019-03-04T12:53:26.223Z,99.90
2019-03-04T12:55:27.891Z,99.90
2019-03-04T12:57:29.558Z,99.90
2019-03-04T12:59:31.232Z,99.90
2019-03-04T13:01:32.907Z,99.90
2019-03-04T13:03:34.585Z,99.90
2019-03-04T13:05:36.258Z,99.90
2019-03-04T13:07:37.937Z,99.90
2019-03-04T13:09:39.609Z,99.90
2019-03-04T13:11:41.282Z,99.90
2019-03-04T13:13:42.982Z,99.90
2019-03-04T13:15:45.022Z,99.90
2019-03-04T13:17:46.977Z,99.90
2019-03-04T13:19:48.658Z,99.90
2019-03-04T13:21:50.334Z,99.90
2019-03-04T13:23:52.265Z,99.90
2019-03-04T13:25:53.938Z,99.90
2019-03-04T13:27:55.901Z,99.90
2019-03-04T13:29:57.577Z,99.90
2019-03-04T13:31:59.311Z,99.90
2019-03-04T13:34:01.051Z,99.90
2019-03-04T13:36:04.634Z,99.90
2019-03-04T13:38:06.313Z,99.90
2019-03-04T13:40:09.054Z,99.90
2019-03-04T13:42:10.937Z,99.90
2019-03-04T13:44:12.938Z,99.90
2019-03-04T13:46:14.604Z,99.90
2019-03-04T13:48:16.273Z,93.50
2019-03-04T13:50:19.160Z,95.80
2019-03-04T13:52:20.830Z,91.60
2019-03-04T13:54:22.833Z,94.00
2019-03-04T13:56:24.508Z,77.00
2019-03-04T13:58:26.181Z,76.10
2019-03-04T14:00:28.338Z,83.30
2019-03-04T14:02:30.009Z,90.80
2019-03-04T14:04:31.695Z,92.50
2019-03-04T14:06:33.365Z,93.20
2019-03-04T14:08:35.313Z,96.90
2019-03-04T14:10:37.029Z,93.00
2019-03-04T14:12:38.701Z,98.70
2019-03-04T14:14:40.408Z,95.60
2019-03-04T14:16:42.073Z,92.80
2019-03-04T14:18:43.741Z,93.80
2019-03-04T14:20:45.435Z,92.70
2019-03-04T14:22:56.972Z,93.70
2019-03-04T14:24:50.986Z,92.50
2019-03-04T14:26:52.658Z,85.30
2019-03-04T14:28:54.326Z,87.50
2019-03-04T14:30:56.020Z,85.30
2019-03-04T14:32:57.686Z,77.20
2019-03-04T14:34:59.368Z,87.10
2019-03-04T14:37:03.209Z,90.00
2019-03-04T14:39:05.478Z,92.90
2019-03-04T14:41:07.153Z,92.10
2019-03-04T14:43:08.825Z,92.80
2019-03-04T14:45:12.874Z,92.70
2019-03-04T14:47:14.542Z,95.60
2019-03-04T14:49:16.205Z,91.40
2019-03-04T14:51:19.059Z,92.40
2019-03-04T14:53:20.954Z,92.40
2019-03-04T14:55:22.637Z,90.30
2019-03-04T14:57:24.373Z,90.00
2019-03-04T14:59:26.184Z,91.80
2019-03-04T15:01:27.870Z,82.60
2019-03-04T15:03:29.550Z,80.20
2019-03-04T15:05:31.227Z,88.20
2019-03-04T15:07:32.902Z,75.10
2019-03-04T15:09:34.593Z,78.60
2019-03-04T15:11:36.274Z,75.10
2019-03-04T15:13:37.946Z,82.50
2019-03-04T15:15:39.638Z,81.60
2019-03-04T15:17:41.613Z,84.20
2019-03-04T15:19:43.289Z,88.10
2019-03-04T15:21:44.962Z,86.00
2019-03-04T15:23:46.631Z,93.10
2019-03-04T15:25:48.309Z,88.30
2019-03-04T15:27:49.982Z,91.80
2019-03-04T15:29:51.656Z,92.50
2019-03-04T15:31:53.689Z,84.40
2019-03-04T15:33:55.353Z,87.90
2019-03-04T15:35:57.043Z,85.80
2019-03-04T15:37:58.706Z,75.30
2019-03-04T15:40:00.453Z,76.80
2019-03-04T15:42:02.158Z,73.50
2019-03-04T15:44:04.110Z,78.60
2019-03-04T15:46:06.094Z,82.00
2019-03-04T15:48:07.773Z,77.30
2019-03-04T15:50:09.553Z,77.50
2019-03-04T15:52:11.284Z,84.80
2019-03-04T15:54:13.001Z,75.30
2019-03-04T15:56:14.941Z,72.80
2019-03-04T15:58:16.904Z,72.00
2019-03-04T16:00:18.573Z,70.90
2019-03-04T16:02:20.513Z,66.60
2019-03-04T16:04:22.291Z,68.90
2019-03-04T16:06:24.475Z,73.20
2019-03-04T16:08:26.137Z,80.00
2019-03-04T16:10:29.261Z,84.90
2019-03-04T16:12:31.551Z,82.00
2019-03-04T16:14:33.236Z,79.00
2019-03-04T16:16:34.997Z,73.50
2019-03-04T16:18:36.707Z,76.60
2019-03-04T16:20:38.737Z,71.50
2019-03-04T16:22:40.417Z,76.00
2019-03-04T16:24:42.374Z,73.00
2019-03-04T16:26:44.050Z,73.20
2019-03-04T16:28:45.724Z,72.50
2019-03-04T16:30:48.397Z,69.90
2019-03-04T16:32:50.066Z,65.80
2019-03-04T16:34:51.727Z,72.20
2019-03-04T16:36:53.415Z,65.30
2019-03-04T16:38:55.073Z,64.20
2019-03-04T16:40:56.995Z,70.00
2019-03-04T16:42:58.659Z,67.00
2019-03-04T16:45:00.337Z,65.20
2019-03-04T16:47:02.461Z,66.20
2019-03-04T16:49:04.154Z,59.50
2019-03-04T16:51:05.918Z,60.50
2019-03-04T16:53:08.182Z,55.90
2019-03-04T16:55:11.577Z,56.50
2019-03-04T16:57:13.259Z,58.70
2019-03-04T16:59:14.939Z,59.20
2019-03-04T17:01:16.637Z,61.10
2019-03-04T17:03:18.640Z,64.70
2019-03-04T17:05:20.314Z,61.70
2019-03-04T17:07:22.260Z,60.90
2019-03-04T17:09:23.933Z,61.20
2019-03-04T17:11:25.611Z,59.70
2019-03-04T17:13:27.278Z,56.60
2019-03-04T17:15:29.293Z,59.70
2019-03-04T17:17:30.981Z,60.80
2019-03-04T17:19:32.658Z,61.10
2019-03-04T17:21:34.342Z,58.40
2019-03-04T17:23:36.014Z,63.80
2019-03-04T17:25:37.685Z,62.00
2019-03-04T17:27:41.429Z,59.60
2019-03-04T17:29:42.936Z,62.50
2019-03-04T17:31:44.874Z,57.40
2019-03-04T17:33:46.818Z,59.70
2019-03-04T17:35:48.507Z,66.10
2019-03-04T17:37:50.537Z,63.10
2019-03-04T17:39:52.598Z,65.90
2019-03-04T17:41:54.281Z,61.20
2019-03-04T17:43:55.967Z,66.20
2019-03-04T17:45:57.650Z,65.00
2019-03-04T17:47:59.338Z,65.00
2019-03-04T17:50:01.010Z,64.80
2019-03-04T17:52:02.699Z,63.00
2019-03-04T17:54:04.385Z,63.00
2019-03-04T17:56:06.050Z,64.50
2019-03-04T17:58:07.737Z,62.60
2019-03-04T18:00:11.386Z,64.00
2019-03-04T18:02:13.066Z,61.00
2019-03-04T18:04:15.023Z,60.00
2019-03-04T18:06:16.694Z,65.50
2019-03-04T18:08:18.693Z,62.20
2019-03-04T18:10:20.763Z,60.60
2019-03-04T18:12:22.441Z,59.00
2019-03-04T18:14:24.433Z,58.60
2019-03-04T18:16:26.097Z,62.10
2019-03-04T18:18:27.848Z,60.40
2019-03-04T18:20:34.525Z,72.00
2019-03-04T18:22:33.197Z,65.20
2019-03-04T18:24:34.870Z,66.70
2019-03-04T18:26:51.586Z,65.90
2019-03-04T18:29:17.025Z,65.60
2019-03-04T18:31:35.674Z,67.20
2019-03-04T18:34:02.417Z,64.00
2019-03-04T18:36:23.416Z,72.50
2019-03-04T18:38:55.481Z,72.90
2019-03-04T18:41:31.121Z,70.10
2019-03-04T18:43:51.622Z,71.20
2019-03-04T18:46:31.081Z,68.70
2019-03-04T18:48:58.153Z,67.70
2019-03-04T18:50:59.821Z,64.80
2019-03-04T18:53:01.520Z,67.90
2019-03-04T18:55:03.221Z,71.80
2019-03-04T18:57:04.902Z,67.40
2019-03-04T18:59:07.090Z,64.80
2019-03-04T19:01:08.766Z,68.70
2019-03-04T19:03:10.445Z,66.80
2019-03-04T19:05:12.117Z,66.50
2019-03-04T19:07:13.791Z,66.90
2019-03-04T19:09:15.483Z,64.10
2019-03-04T19:11:17.443Z,68.00
2019-03-04T19:13:19.125Z,67.50
2019-03-04T19:15:20.807Z,66.90
2019-03-04T19:17:22.474Z,66.70
2019-03-04T19:19:24.493Z,67.90
2019-03-04T19:21:26.158Z,70.20
2019-03-04T19:23:27.834Z,64.20
2019-03-04T19:25:29.506Z,63.70
2019-03-04T19:27:31.192Z,69.20
2019-03-04T19:29:32.880Z,70.10
2019-03-04T19:31:34.810Z,69.80
2019-03-04T19:33:36.498Z,67.50
2019-03-04T19:35:38.206Z,71.90
2019-03-04T19:37:39.885Z,71.40
2019-03-04T19:39:41.569Z,74.40
2019-03-04T19:41:43.233Z,72.50
2019-03-04T19:43:44.909Z,70.70
2019-03-04T19:45:46.586Z,72.00
2019-03-04T19:47:48.262Z,73.70
2019-03-04T19:49:49.941Z,71.20
2019-03-04T19:51:51.617Z,74.20
2019-03-04T19:53:53.595Z,72.50
2019-03-04T19:55:55.257Z,72.40
2019-03-04T19:57:56.929Z,71.10
2019-03-04T19:59:58.614Z,74.40
2019-03-04T20:02:02.169Z,75.40
2019-03-04T20:04:04.089Z,72.30
2019-03-04T20:06:05.769Z,76.50
2019-03-04T20:08:07.441Z,75.10
2019-03-04T20:10:09.633Z,74.80
2019-03-04T20:12:11.310Z,76.10
2019-03-04T20:14:12.999Z,77.20
2019-03-04T20:16:14.691Z,77.80
2019-03-04T20:18:16.445Z,77.70
2019-03-04T20:20:18.125Z,74.10
2019-03-04T20:22:21.927Z,77.80
2019-03-04T20:24:23.393Z,77.00
2019-03-04T20:26:25.067Z,76.90
2019-03-04T20:28:28.650Z,78.10
2019-03-04T20:30:30.337Z,78.10
2019-03-04T20:32:32.024Z,76.40
2019-03-04T20:34:33.710Z,75.50
2019-03-04T20:36:35.754Z,75.90
2019-03-04T20:38:41.123Z,74.60
2019-03-04T20:40:43.053Z,71.60
2019-03-04T20:42:44.733Z,71.60
2019-03-04T20:44:46.727Z,69.60
2019-03-04T20:46:48.594Z,72.90
2019-03-04T20:48:50.269Z,70.30
2019-03-04T20:50:52.058Z,70.00
2019-03-04T20:52:53.737Z,72.30
2019-03-04T20:54:55.421Z,70.90
2019-03-04T20:56:57.094Z,68.80
2019-03-04T20:58:58.778Z,71.70
2019-03-04T21:01:00.470Z,69.00
2019-03-04T21:03:02.533Z,68.40
2019-03-04T21:05:05.014Z,71.30
2019-03-04T21:07:06.929Z,72.50
2019-03-04T21:09:09.404Z,70.50
2019-03-04T21:11:11.409Z,74.20
2019-03-04T21:13:23.607Z,77.20
2019-03-04T21:15:27.307Z,71.20
2019-03-04T21:17:29.258Z,72.60
2019-03-04T21:19:30.926Z,75.90
2019-03-04T21:21:32.609Z,74.70
2019-03-04T21:23:34.281Z,73.10
2019-03-04T21:25:38.579Z,70.30
2019-03-04T21:27:40.249Z,71.00
2019-03-04T21:29:55.165Z,76.80
2019-03-04T21:32:08.296Z,76.50
2019-03-04T21:35:01.420Z,77.60
2019-03-04T21:37:11.102Z,77.40
2019-03-04T21:39:12.790Z,76.90
2019-03-04T21:41:25.077Z,76.60
2019-03-04T21:43:32.856Z,73.80
2019-03-04T21:46:24.822Z,73.80
2019-03-04T21:48:32.280Z,74.60
2019-03-04T21:51:00.853Z,76.50
2019-03-04T21:53:30.094Z,73.90
2019-03-04T21:55:39.178Z,70.90
2019-03-04T21:57:50.053Z,73.90
2019-03-04T21:59:51.730Z,71.10
2019-03-04T22:01:58.379Z,71.10
2019-03-04T22:04:00.325Z,66.20
2019-03-04T22:06:02.699Z,69.40
2019-03-04T22:08:04.382Z,70.10
2019-03-04T22:10:07.221Z,66.40
2019-03-04T22:12:11.242Z,71.10
2019-03-04T22:14:12.917Z,68.40
2019-03-04T22:16:14.599Z,65.90
2019-03-04T22:18:16.279Z,67.70
2019-03-04T22:20:17.966Z,65.90
2019-03-04T22:22:19.748Z,66.00
2019-03-04T22:24:21.414Z,63.50
2019-03-04T22:26:23.371Z,66.00
2019-03-04T22:28:25.067Z,64.70
2019-03-04T22:30:27.169Z,64.80
2019-03-04T22:32:28.870Z,66.40
2019-03-04T22:34:30.914Z,66.20
2019-03-04T22:36:32.681Z,61.50
2019-03-04T22:38:34.701Z,64.00
2019-03-04T22:40:36.383Z,60.00
2019-03-04T22:42:38.683Z,66.40
2019-03-04T22:44:40.601Z,60.60
2019-03-04T22:46:42.378Z,63.60
2019-03-04T22:48:44.075Z,62.70
2019-03-04T22:50:46.175Z,63.10
2019-03-04T22:52:47.937Z,66.70
2019-03-04T22:54:49.859Z,69.70
2019-03-04T22:56:51.633Z,69.00
2019-03-04T22:58:53.309Z,66.40
2019-03-04T23:01:36.017Z,69.70
2019-03-04T23:03:37.801Z,69.00
2019-03-04T23:05:39.478Z,70.50
2019-03-04T23:07:46.933Z,73.70
2019-03-04T23:09:58.610Z,71.10
2019-03-04T23:12:10.917Z,71.10
2019-03-04T23:14:20.425Z,69.40
2019-03-04T23:16:24.762Z,70.30
2019-03-04T23:18:26.445Z,67.20
2019-03-04T23:20:28.120Z,72.40
2019-03-04T23:22:29.993Z,70.10
2019-03-04T23:24:31.677Z,71.40
2019-03-04T23:26:33.342Z,70.80
2019-03-04T23:28:35.022Z,69.60
2019-03-04T23:30:36.693Z,75.80
2019-03-04T23:32:38.365Z,71.80
2019-03-04T23:34:40.322Z,73.20
2019-03-04T23:36:42.003Z,75.00
2019-03-04T23:38:43.714Z,73.30
2019-03-04T23:40:45.989Z,74.50
2019-03-04T23:42:47.656Z,75.70
2019-03-04T23:44:50.238Z,76.40
2019-03-04T23:46:52.173Z,78.30
2019-03-04T23:48:53.857Z,81.00
2019-03-04T23:50:55.542Z,80.30
2019-03-04T23:52:57.205Z,79.90
2019-03-04T23:54:59.166Z,88.50
2019-03-04T23:57:00.841Z,88.60
2019-03-04T23:59:02.806Z,90.60
